CheckWX is a tool to help pilots better visualize weather data.  It is not intended as a substitute for an official pre-flight weather briefing.

19:17:02 UTC

EGDY TAF
RNAS Yeovilton Airport
Yeovil, United Kingdom
TAF EGDY 271509Z 2715/2724 24008KT 9999 FEW020 BKN040 TEMPO 2722/2724 8000 SHRA SCT018TCU

Jan-27@
15:00 UTC

Jan-27 @ 15:00 UTC

Jan-28@
00:00 UTC

Jan-28 @ 00:00 UTC

TAF EGDY 271509Z 2715/2724 24008KT 9999 FEW020 BKN040
Wind
  • 240° at 8 KTS
Cloud Levels
  • Few at 2,000' AGL
  • Broken at 4,000' AGL

Jan-27@
22:00 UTC

Jan-27 @ 22:00 UTC

Jan-28@
00:00 UTC

Jan-28 @ 00:00 UTC

TEMPO 2722/2724 8000 SHRA SCT018TCU

Temporary

Temporary Changes expected for less than half the time period

Conditions
Rain
Cloud Levels
  • Scattered at 1,800' AGL